sensor_id;sensor_type;location;lat;lon;timestamp;temperature;humidity
14122;DHT22;7139;48.114;11.442;2023-08-21T00:01:37;21.40;99.90
14122;DHT22;7139;48.114;11.442;2023-08-21T00:04:04;21.40;99.90
14122;DHT22;7139;48.114;11.442;2023-08-21T00:06:31;21.40;99.90
14122;DHT22;7139;48.114;11.442;2023-08-21T00:08:58;21.40;99.90
14122;DHT22;7139;48.114;11.442;2023-08-21T00:11:25;21.40;99.90
14122;DHT22;7139;48.114;11.442;2023-08-21T00:13:53;21.30;99.90
14122;DHT22;7139;48.114;11.442;2023-08-21T00:16:19;21.30;99.90
14122;DHT22;7139;48.114;11.442;2023-08-21T00:18:46;21.20;99.90
14122;DHT22;7139;48.114;11.442;2023-08-21T00:21:13;21.20;99.90
14122;DHT22;7139;48.114;11.442;2023-08-21T00:23:40;21.20;99.90
14122;DHT22;7139;48.114;11.442;2023-08-21T00:26:07;21.10;99.90
14122;DHT22;7139;48.114;11.442;2023-08-21T00:28:33;21.10;99.90
14122;DHT22;7139;48.114;11.442;2023-08-21T00:31:03;21.10;99.90
14122;DHT22;7139;48.114;11.442;2023-08-21T00:33:30;21.00;99.90
14122;DHT22;7139;48.114;11.442;2023-08-21T00:35:57;21.00;99.90
14122;DHT22;7139;48.114;11.442;2023-08-21T00:38:24;21.00;99.90
14122;DHT22;7139;48.114;11.442;2023-08-21T00:40:51;20.90;99.90
14122;DHT22;7139;48.114;11.442;2023-08-21T00:43:18;20.90;99.90
14122;DHT22;7139;48.114;11.442;2023-08-21T00:45:46;20.90;99.90
14122;DHT22;7139;48.114;11.442;2023-08-21T00:48:15;20.80;99.90
14122;DHT22;7139;48.114;11.442;2023-08-21T00:50:42;20.80;99.90
14122;DHT22;7139;48.114;11.442;2023-08-21T00:53:10;20.80;99.90
14122;DHT22;7139;48.114;11.442;2023-08-21T00:55:38;20.80;99.90
14122;DHT22;7139;48.114;11.442;2023-08-21T00:58:07;20.70;99.90
14122;DHT22;7139;48.114;11.442;2023-08-21T01:00:35;20.70;99.90
14122;DHT22;7139;48.114;11.442;2023-08-21T01:03:02;20.70;99.90
14122;DHT22;7139;48.114;11.442;2023-08-21T01:05:30;20.70;99.90
14122;DHT22;7139;48.114;11.442;2023-08-21T01:08:01;20.60;99.90
14122;DHT22;7139;48.114;11.442;2023-08-21T01:10:39;20.60;99.90
14122;DHT22;7139;48.114;11.442;2023-08-21T01:13:15;20.60;99.90
14122;DHT22;7139;48.114;11.442;2023-08-21T01:15:46;20.60;99.90
14122;DHT22;7139;48.114;11.442;2023-08-21T01:18:14;20.60;99.90
14122;DHT22;7139;48.114;11.442;2023-08-21T01:20:43;20.60;99.90
14122;DHT22;7139;48.114;11.442;2023-08-21T01:23:26;20.60;99.90
14122;DHT22;7139;48.114;11.442;2023-08-21T01:25:52;20.60;99.90
14122;DHT22;7139;48.114;11.442;2023-08-21T01:28:19;20.60;99.90
14122;DHT22;7139;48.114;11.442;2023-08-21T01:30:47;20.60;99.90
14122;DHT22;7139;48.114;11.442;2023-08-21T01:33:15;20.50;99.90
14122;DHT22;7139;48.114;11.442;2023-08-21T01:35:43;20.50;99.90
14122;DHT22;7139;48.114;11.442;2023-08-21T01:38:10;20.40;99.90
14122;DHT22;7139;48.114;11.442;2023-08-21T01:40:39;20.50;99.90
14122;DHT22;7139;48.114;11.442;2023-08-21T01:43:06;20.50;99.90
14122;DHT22;7139;48.114;11.442;2023-08-21T01:45:33;20.50;99.90
14122;DHT22;7139;48.114;11.442;2023-08-21T01:48:00;20.40;99.90
14122;DHT22;7139;48.114;11.442;2023-08-21T01:50:27;20.40;99.90
14122;DHT22;7139;48.114;11.442;2023-08-21T01:52:54;20.40;99.90
14122;DHT22;7139;48.114;11.442;2023-08-21T01:55:21;20.40;99.90
14122;DHT22;7139;48.114;11.442;2023-08-21T01:57:49;20.30;99.90
14122;DHT22;7139;48.114;11.442;2023-08-21T02:00:16;20.30;99.90
14122;DHT22;7139;48.114;11.442;2023-08-21T02:02:43;20.30;99.90
14122;DHT22;7139;48.114;11.442;2023-08-21T02:05:09;20.30;99.90
14122;DHT22;7139;48.114;11.442;2023-08-21T02:07:36;20.20;99.90
14122;DHT22;7139;48.114;11.442;2023-08-21T02:10:03;20.20;99.90
14122;DHT22;7139;48.114;11.442;2023-08-21T02:12:30;20.20;99.90
14122;DHT22;7139;48.114;11.442;2023-08-21T02:14:58;20.20;99.90
14122;DHT22;7139;48.114;11.442;2023-08-21T02:17:26;20.20;99.90
14122;DHT22;7139;48.114;11.442;2023-08-21T02:19:53;20.10;99.90
14122;DHT22;7139;48.114;11.442;2023-08-21T02:22:19;20.10;99.90
14122;DHT22;7139;48.114;11.442;2023-08-21T02:24:46;20.10;99.90
14122;DHT22;7139;48.114;11.442;2023-08-21T02:27:13;20.10;99.90
14122;DHT22;7139;48.114;11.442;2023-08-21T02:29:40;20.10;99.90
14122;DHT22;7139;48.114;11.442;2023-08-21T02:32:08;20.10;99.90
14122;DHT22;7139;48.114;11.442;2023-08-21T02:34:35;20.10;99.90
14122;DHT22;7139;48.114;11.442;2023-08-21T02:37:02;20.10;99.90
14122;DHT22;7139;48.114;11.442;2023-08-21T02:39:30;20.10;99.90
14122;DHT22;7139;48.114;11.442;2023-08-21T02:41:57;20.10;99.90
14122;DHT22;7139;48.114;11.442;2023-08-21T02:44:23;20.10;99.90
14122;DHT22;7139;48.114;11.442;2023-08-21T02:46:50;20.10;99.90
14122;DHT22;7139;48.114;11.442;2023-08-21T02:49:18;20.10;99.90
14122;DHT22;7139;48.114;11.442;2023-08-21T02:51:45;20.00;99.90
14122;DHT22;7139;48.114;11.442;2023-08-21T02:54:12;20.00;99.90
14122;DHT22;7139;48.114;11.442;2023-08-21T02:56:38;20.00;99.90
14122;DHT22;7139;48.114;11.442;2023-08-21T02:59:05;20.00;99.90
14122;DHT22;7139;48.114;11.442;2023-08-21T03:01:32;20.00;99.90
14122;DHT22;7139;48.114;11.442;2023-08-21T03:04:00;19.90;99.90
14122;DHT22;7139;48.114;11.442;2023-08-21T03:06:28;19.90;99.90
14122;DHT22;7139;48.114;11.442;2023-08-21T03:08:55;19.90;99.90
14122;DHT22;7139;48.114;11.442;2023-08-21T03:11:22;19.90;99.90
14122;DHT22;7139;48.114;11.442;2023-08-21T03:13:49;19.90;99.90
14122;DHT22;7139;48.114;11.442;2023-08-21T03:16:15;19.90;99.90
14122;DHT22;7139;48.114;11.442;2023-08-21T03:18:54;19.90;99.90
14122;DHT22;7139;48.114;11.442;2023-08-21T03:21:22;19.90;99.90
14122;DHT22;7139;48.114;11.442;2023-08-21T03:23:53;19.90;99.90
14122;DHT22;7139;48.114;11.442;2023-08-21T03:26:20;19.90;99.90
14122;DHT22;7139;48.114;11.442;2023-08-21T03:28:46;19.90;99.90
14122;DHT22;7139;48.114;11.442;2023-08-21T03:31:13;19.80;99.90
14122;DHT22;7139;48.114;11.442;2023-08-21T03:33:40;19.80;99.90
14122;DHT22;7139;48.114;11.442;2023-08-21T03:36:07;19.80;99.90
14122;DHT22;7139;48.114;11.442;2023-08-21T03:38:34;19.80;99.90
14122;DHT22;7139;48.114;11.442;2023-08-21T03:41:02;19.70;99.90
14122;DHT22;7139;48.114;11.442;2023-08-21T03:43:30;19.70;99.90
14122;DHT22;7139;48.114;11.442;2023-08-21T03:45:57;19.70;99.90
14122;DHT22;7139;48.114;11.442;2023-08-21T03:48:24;19.70;99.90
14122;DHT22;7139;48.114;11.442;2023-08-21T03:50:50;19.70;99.90
14122;DHT22;7139;48.114;11.442;2023-08-21T03:53:18;19.70;99.90
14122;DHT22;7139;48.114;11.442;2023-08-21T03:55:44;19.60;99.90
14122;DHT22;7139;48.114;11.442;2023-08-21T03:58:13;19.60;99.90
14122;DHT22;7139;48.114;11.442;2023-08-21T04:00:40;19.60;99.90
14122;DHT22;7139;48.114;11.442;2023-08-21T04:03:07;19.60;99.90
14122;DHT22;7139;48.114;11.442;2023-08-21T04:05:34;19.50;99.90
14122;DHT22;7139;48.114;11.442;2023-08-21T04:08:01;19.50;99.90
14122;DHT22;7139;48.114;11.442;2023-08-21T04:10:27;19.50;99.90
14122;DHT22;7139;48.114;11.442;2023-08-21T04:12:54;19.50;99.90
14122;DHT22;7139;48.114;11.442;2023-08-21T04:15:22;19.40;99.90
14122;DHT22;7139;48.114;11.442;2023-08-21T04:17:49;19.40;99.90
14122;DHT22;7139;48.114;11.442;2023-08-21T04:20:16;19.40;99.90
14122;DHT22;7139;48.114;11.442;2023-08-21T04:22:42;19.40;99.90
14122;DHT22;7139;48.114;11.442;2023-08-21T04:25:09;19.40;99.90
14122;DHT22;7139;48.114;11.442;2023-08-21T04:27:36;19.40;99.90
14122;DHT22;7139;48.114;11.442;2023-08-21T04:30:04;19.40;99.90
14122;DHT22;7139;48.114;11.442;2023-08-21T04:32:32;19.40;99.90
14122;DHT22;7139;48.114;11.442;2023-08-21T04:34:59;19.40;99.90
14122;DHT22;7139;48.114;11.442;2023-08-21T04:37:26;19.40;99.90
14122;DHT22;7139;48.114;11.442;2023-08-21T04:39:53;19.40;99.90
14122;DHT22;7139;48.114;11.442;2023-08-21T04:42:20;19.40;99.90
14122;DHT22;7139;48.114;11.442;2023-08-21T04:44:47;19.30;99.90
14122;DHT22;7139;48.114;11.442;2023-08-21T04:47:24;19.30;99.90
14122;DHT22;7139;48.114;11.442;2023-08-21T04:49:53;19.30;99.90
14122;DHT22;7139;48.114;11.442;2023-08-21T04:52:20;19.30;99.90
14122;DHT22;7139;48.114;11.442;2023-08-21T04:54:47;19.30;99.90
14122;DHT22;7139;48.114;11.442;2023-08-21T04:57:14;19.30;99.90
14122;DHT22;7139;48.114;11.442;2023-08-21T04:59:41;19.20;99.90
14122;DHT22;7139;48.114;11.442;2023-08-21T05:02:08;19.20;99.90
14122;DHT22;7139;48.114;11.442;2023-08-21T05:04:36;19.20;99.90
14122;DHT22;7139;48.114;11.442;2023-08-21T05:07:05;19.20;99.90
14122;DHT22;7139;48.114;11.442;2023-08-21T05:09:32;19.20;99.90
14122;DHT22;7139;48.114;11.442;2023-08-21T05:11:59;19.20;99.90
14122;DHT22;7139;48.114;11.442;2023-08-21T05:14:26;19.20;99.90
14122;DHT22;7139;48.114;11.442;2023-08-21T05:16:52;19.20;99.90
14122;DHT22;7139;48.114;11.442;2023-08-21T05:19:19;19.20;99.90
14122;DHT22;7139;48.114;11.442;2023-08-21T05:21:46;19.20;99.90
14122;DHT22;7139;48.114;11.442;2023-08-21T05:24:14;19.30;99.90
14122;DHT22;7139;48.114;11.442;2023-08-21T05:26:41;19.30;99.90
14122;DHT22;7139;48.114;11.442;2023-08-21T05:29:08;19.30;99.90
14122;DHT22;7139;48.114;11.442;2023-08-21T05:31:35;19.40;99.90
14122;DHT22;7139;48.114;11.442;2023-08-21T05:34:01;19.40;99.90
14122;DHT22;7139;48.114;11.442;2023-08-21T05:36:28;19.40;99.90
14122;DHT22;7139;48.114;11.442;2023-08-21T05:38:56;19.50;99.90
14122;DHT22;7139;48.114;11.442;2023-08-21T05:41:24;19.50;99.90
14122;DHT22;7139;48.114;11.442;2023-08-21T05:43:51;19.50;99.90
14122;DHT22;7139;48.114;11.442;2023-08-21T05:46:18;19.60;99.90
14122;DHT22;7139;48.114;11.442;2023-08-21T05:48:44;19.70;99.90
14122;DHT22;7139;48.114;11.442;2023-08-21T05:51:12;19.80;99.90
14122;DHT22;7139;48.114;11.442;2023-08-21T05:53:38;19.90;99.90
14122;DHT22;7139;48.114;11.442;2023-08-21T05:56:06;20.00;99.90
14122;DHT22;7139;48.114;11.442;2023-08-21T05:58:34;20.20;99.90
14122;DHT22;7139;48.114;11.442;2023-08-21T06:01:01;20.30;99.90
14122;DHT22;7139;48.114;11.442;2023-08-21T06:03:28;20.40;99.90
14122;DHT22;7139;48.114;11.442;2023-08-21T06:05:55;20.50;99.90
14122;DHT22;7139;48.114;11.442;2023-08-21T06:08:21;20.60;99.90
14122;DHT22;7139;48.114;11.442;2023-08-21T06:10:51;20.60;99.90
14122;DHT22;7139;48.114;11.442;2023-08-21T06:13:18;20.70;99.90
14122;DHT22;7139;48.114;11.442;2023-08-21T06:15:46;20.80;99.90
14122;DHT22;7139;48.114;11.442;2023-08-21T06:18:13;20.90;99.90
14122;DHT22;7139;48.114;11.442;2023-08-21T06:20:41;20.90;99.90
14122;DHT22;7139;48.114;11.442;2023-08-21T06:23:08;21.00;99.90
14122;DHT22;7139;48.114;11.442;2023-08-21T06:25:35;21.10;99.90
14122;DHT22;7139;48.114;11.442;2023-08-21T06:28:02;21.10;99.90
14122;DHT22;7139;48.114;11.442;2023-08-21T06:30:29;21.20;99.90
14122;DHT22;7139;48.114;11.442;2023-08-21T06:32:57;21.30;99.90
14122;DHT22;7139;48.114;11.442;2023-08-21T06:35:24;21.30;99.90
14122;DHT22;7139;48.114;11.442;2023-08-21T06:37:50;21.40;99.90
14122;DHT22;7139;48.114;11.442;2023-08-21T06:40:17;21.50;99.90
14122;DHT22;7139;48.114;11.442;2023-08-21T06:42:44;21.50;99.90
14122;DHT22;7139;48.114;11.442;2023-08-21T06:45:11;21.70;99.90
14122;DHT22;7139;48.114;11.442;2023-08-21T06:47:37;21.80;99.90
14122;DHT22;7139;48.114;11.442;2023-08-21T06:50:07;21.80;99.90
14122;DHT22;7139;48.114;11.442;2023-08-21T06:52:34;21.90;99.90
14122;DHT22;7139;48.114;11.442;2023-08-21T06:55:01;22.00;99.90
14122;DHT22;7139;48.114;11.442;2023-08-21T06:57:27;22.10;99.90
14122;DHT22;7139;48.114;11.442;2023-08-21T06:59:54;22.10;99.90
14122;DHT22;7139;48.114;11.442;2023-08-21T07:02:21;22.20;99.90
14122;DHT22;7139;48.114;11.442;2023-08-21T07:04:48;22.30;99.90
14122;DHT22;7139;48.114;11.442;2023-08-21T07:07:16;22.40;99.90
14122;DHT22;7139;48.114;11.442;2023-08-21T07:09:42;22.50;99.90
14122;DHT22;7139;48.114;11.442;2023-08-21T07:12:09;22.60;99.90
14122;DHT22;7139;48.114;11.442;2023-08-21T07:14:36;22.70;99.90
14122;DHT22;7139;48.114;11.442;2023-08-21T07:17:03;22.80;99.90
14122;DHT22;7139;48.114;11.442;2023-08-21T07:19:30;22.90;99.90
14122;DHT22;7139;48.114;11.442;2023-08-21T07:21:56;23.00;99.90
14122;DHT22;7139;48.114;11.442;2023-08-21T07:24:24;23.10;99.90
14122;DHT22;7139;48.114;11.442;2023-08-21T07:26:51;23.20;99.90
14122;DHT22;7139;48.114;11.442;2023-08-21T07:29:18;23.50;99.70
14122;DHT22;7139;48.114;11.442;2023-08-21T07:31:45;23.50;99.90
14122;DHT22;7139;48.114;11.442;2023-08-21T07:34:11;23.50;99.50
14122;DHT22;7139;48.114;11.442;2023-08-21T07:36:38;23.60;99.60
14122;DHT22;7139;48.114;11.442;2023-08-21T07:39:05;23.60;99.30
14122;DHT22;7139;48.114;11.442;2023-08-21T07:41:33;23.70;99.50
14122;DHT22;7139;48.114;11.442;2023-08-21T07:44:00;23.80;99.40
14122;DHT22;7139;48.114;11.442;2023-08-21T07:46:27;24.00;99.70
14122;DHT22;7139;48.114;11.442;2023-08-21T07:48:54;24.10;99.10
14122;DHT22;7139;48.114;11.442;2023-08-21T07:51:20;24.20;99.10
14122;DHT22;7139;48.114;11.442;2023-08-21T07:53:47;24.40;99.30
14122;DHT22;7139;48.114;11.442;2023-08-21T07:56:14;24.50;99.10
14122;DHT22;7139;48.114;11.442;2023-08-21T07:58:42;24.70;99.10
14122;DHT22;7139;48.114;11.442;2023-08-21T08:01:09;24.80;99.00
14122;DHT22;7139;48.114;11.442;2023-08-21T08:03:36;25.00;98.60
14122;DHT22;7139;48.114;11.442;2023-08-21T08:06:03;25.10;98.00
14122;DHT22;7139;48.114;11.442;2023-08-21T08:08:30;25.30;97.80
14122;DHT22;7139;48.114;11.442;2023-08-21T08:11:01;25.50;98.70
14122;DHT22;7139;48.114;11.442;2023-08-21T08:13:29;25.70;95.90
14122;DHT22;7139;48.114;11.442;2023-08-21T08:15:57;25.90;97.00
14122;DHT22;7139;48.114;11.442;2023-08-21T08:18:24;26.10;97.30
14122;DHT22;7139;48.114;11.442;2023-08-21T08:20:50;26.30;97.00
14122;DHT22;7139;48.114;11.442;2023-08-21T08:23:19;26.50;97.20
14122;DHT22;7139;48.114;11.442;2023-08-21T08:25:47;26.60;95.20
14122;DHT22;7139;48.114;11.442;2023-08-21T08:28:13;26.80;94.20
14122;DHT22;7139;48.114;11.442;2023-08-21T08:30:40;27.00;94.50
14122;DHT22;7139;48.114;11.442;2023-08-21T08:33:08;27.20;95.70
14122;DHT22;7139;48.114;11.442;2023-08-21T08:35:35;27.40;94.10
14122;DHT22;7139;48.114;11.442;2023-08-21T08:38:02;27.60;95.30
14122;DHT22;7139;48.114;11.442;2023-08-21T08:40:29;27.70;94.90
14122;DHT22;7139;48.114;11.442;2023-08-21T08:42:56;27.80;94.80
14122;DHT22;7139;48.114;11.442;2023-08-21T08:45:28;27.90;94.20
14122;DHT22;7139;48.114;11.442;2023-08-21T08:47:58;28.10;94.20
14122;DHT22;7139;48.114;11.442;2023-08-21T08:50:28;28.30;93.30
14122;DHT22;7139;48.114;11.442;2023-08-21T08:52:57;28.50;93.20
14122;DHT22;7139;48.114;11.442;2023-08-21T08:55:24;28.70;93.50
14122;DHT22;7139;48.114;11.442;2023-08-21T08:57:52;28.80;92.90
14122;DHT22;7139;48.114;11.442;2023-08-21T09:00:19;28.90;91.70
14122;DHT22;7139;48.114;11.442;2023-08-21T09:02:47;29.00;91.20
14122;DHT22;7139;48.114;11.442;2023-08-21T09:05:14;29.20;92.40
14122;DHT22;7139;48.114;11.442;2023-08-21T09:07:42;29.30;90.60
14122;DHT22;7139;48.114;11.442;2023-08-21T09:10:13;29.40;90.50
14122;DHT22;7139;48.114;11.442;2023-08-21T09:12:40;29.60;91.10
14122;DHT22;7139;48.114;11.442;2023-08-21T09:15:08;29.80;90.50
14122;DHT22;7139;48.114;11.442;2023-08-21T09:17:35;29.90;86.80
14122;DHT22;7139;48.114;11.442;2023-08-21T09:20:05;30.00;89.10
14122;DHT22;7139;48.114;11.442;2023-08-21T09:22:32;30.00;85.10
14122;DHT22;7139;48.114;11.442;2023-08-21T09:25:05;30.10;87.30
14122;DHT22;7139;48.114;11.442;2023-08-21T09:27:34;30.20;85.50
14122;DHT22;7139;48.114;11.442;2023-08-21T09:30:03;30.30;86.90
14122;DHT22;7139;48.114;11.442;2023-08-21T09:32:30;30.40;83.50
14122;DHT22;7139;48.114;11.442;2023-08-21T09:34:59;30.60;86.00
14122;DHT22;7139;48.114;11.442;2023-08-21T09:37:28;30.70;86.20
14122;DHT22;7139;48.114;11.442;2023-08-21T09:40:00;30.80;85.40
14122;DHT22;7139;48.114;11.442;2023-08-21T09:42:30;30.90;84.00
14122;DHT22;7139;48.114;11.442;2023-08-21T09:44:57;30.90;81.90
14122;DHT22;7139;48.114;11.442;2023-08-21T09:47:26;30.90;80.70
14122;DHT22;7139;48.114;11.442;2023-08-21T09:49:53;31.00;82.70
14122;DHT22;7139;48.114;11.442;2023-08-21T09:52:20;31.10;80.60
14122;DHT22;7139;48.114;11.442;2023-08-21T09:54:48;31.10;82.20
14122;DHT22;7139;48.114;11.442;2023-08-21T09:57:15;31.30;81.80
14122;DHT22;7139;48.114;11.442;2023-08-21T09:59:44;31.40;79.80
14122;DHT22;7139;48.114;11.442;2023-08-21T10:02:11;31.40;78.60
14122;DHT22;7139;48.114;11.442;2023-08-21T10:04:40;31.40;78.30
14122;DHT22;7139;48.114;11.442;2023-08-21T10:07:09;31.60;77.90
14122;DHT22;7139;48.114;11.442;2023-08-21T10:09:37;31.40;76.40
14122;DHT22;7139;48.114;11.442;2023-08-21T10:12:06;31.60;77.40
14122;DHT22;7139;48.114;11.442;2023-08-21T10:14:35;31.70;78.20
14122;DHT22;7139;48.114;11.442;2023-08-21T10:17:05;31.70;76.10
14122;DHT22;7139;48.114;11.442;2023-08-21T10:19:34;31.80;74.00
14122;DHT22;7139;48.114;11.442;2023-08-21T10:22:01;31.90;74.30
14122;DHT22;7139;48.114;11.442;2023-08-21T10:24:33;31.80;74.40
14122;DHT22;7139;48.114;11.442;2023-08-21T10:27:01;32.00;74.80
14122;DHT22;7139;48.114;11.442;2023-08-21T10:29:29;31.90;74.60
14122;DHT22;7139;48.114;11.442;2023-08-21T10:32:04;32.10;75.30
14122;DHT22;7139;48.114;11.442;2023-08-21T10:34:34;32.10;74.50
14122;DHT22;7139;48.114;11.442;2023-08-21T10:37:08;32.20;74.90
14122;DHT22;7139;48.114;11.442;2023-08-21T10:39:36;32.30;74.40
14122;DHT22;7139;48.114;11.442;2023-08-21T10:42:07;32.40;74.70
14122;DHT22;7139;48.114;11.442;2023-08-21T10:44:47;32.50;75.80
14122;DHT22;7139;48.114;11.442;2023-08-21T10:47:19;32.60;74.70
14122;DHT22;7139;48.114;11.442;2023-08-21T10:49:47;32.50;72.70
14122;DHT22;7139;48.114;11.442;2023-08-21T10:52:14;32.50;74.50
14122;DHT22;7139;48.114;11.442;2023-08-21T10:54:49;32.60;75.40
14122;DHT22;7139;48.114;11.442;2023-08-21T10:57:16;32.70;73.40
14122;DHT22;7139;48.114;11.442;2023-08-21T10:59:53;32.90;75.50
14122;DHT22;7139;48.114;11.442;2023-08-21T11:02:22;33.00;72.80
14122;DHT22;7139;48.114;11.442;2023-08-21T11:04:49;33.00;74.20
14122;DHT22;7139;48.114;11.442;2023-08-21T11:07:16;33.00;72.80
14122;DHT22;7139;48.114;11.442;2023-08-21T11:09:43;33.10;73.80
14122;DHT22;7139;48.114;11.442;2023-08-21T11:12:12;33.00;70.50
14122;DHT22;7139;48.114;11.442;2023-08-21T11:14:39;33.10;72.90
14122;DHT22;7139;48.114;11.442;2023-08-21T11:17:07;33.20;73.40
14122;DHT22;7139;48.114;11.442;2023-08-21T11:19:36;33.20;74.20
14122;DHT22;7139;48.114;11.442;2023-08-21T11:22:03;33.30;72.60
14122;DHT22;7139;48.114;11.442;2023-08-21T11:24:42;33.10;72.40
14122;DHT22;7139;48.114;11.442;2023-08-21T11:27:09;33.00;72.40
14122;DHT22;7139;48.114;11.442;2023-08-21T11:29:38;33.20;72.90
14122;DHT22;7139;48.114;11.442;2023-08-21T11:32:09;33.20;72.90
14122;DHT22;7139;48.114;11.442;2023-08-21T11:34:37;33.30;72.70
14122;DHT22;7139;48.114;11.442;2023-08-21T11:37:05;33.50;71.90
14122;DHT22;7139;48.114;11.442;2023-08-21T11:39:40;33.50;70.30
14122;DHT22;7139;48.114;11.442;2023-08-21T11:42:09;33.60;70.30
14122;DHT22;7139;48.114;11.442;2023-08-21T11:44:43;33.60;71.10
14122;DHT22;7139;48.114;11.442;2023-08-21T11:47:11;33.70;70.30
14122;DHT22;7139;48.114;11.442;2023-08-21T11:49:41;33.80;71.40
14122;DHT22;7139;48.114;11.442;2023-08-21T11:52:09;33.90;70.90
14122;DHT22;7139;48.114;11.442;2023-08-21T11:54:37;33.90;69.50
14122;DHT22;7139;48.114;11.442;2023-08-21T11:57:05;33.90;67.80
14122;DHT22;7139;48.114;11.442;2023-08-21T11:59:32;34.00;69.70
14122;DHT22;7139;48.114;11.442;2023-08-21T12:01:58;34.00;69.50
14122;DHT22;7139;48.114;11.442;2023-08-21T12:04:26;33.90;69.40
14122;DHT22;7139;48.114;11.442;2023-08-21T12:06:54;34.00;69.50
14122;DHT22;7139;48.114;11.442;2023-08-21T12:09:21;33.90;69.90
14122;DHT22;7139;48.114;11.442;2023-08-21T12:11:48;34.00;69.80
14122;DHT22;7139;48.114;11.442;2023-08-21T12:14:14;34.00;68.10
14122;DHT22;7139;48.114;11.442;2023-08-21T12:16:42;33.90;68.90
14122;DHT22;7139;48.114;11.442;2023-08-21T12:19:09;34.00;68.90
14122;DHT22;7139;48.114;11.442;2023-08-21T12:21:37;34.10;67.70
14122;DHT22;7139;48.114;11.442;2023-08-21T12:24:06;34.20;67.10
14122;DHT22;7139;48.114;11.442;2023-08-21T12:26:33;34.20;67.70
14122;DHT22;7139;48.114;11.442;2023-08-21T12:29:00;34.30;67.90
14122;DHT22;7139;48.114;11.442;2023-08-21T12:31:27;34.30;66.60
14122;DHT22;7139;48.114;11.442;2023-08-21T12:33:54;34.40;67.20
14122;DHT22;7139;48.114;11.442;2023-08-21T12:36:21;34.50;68.20
14122;DHT22;7139;48.114;11.442;2023-08-21T12:38:48;34.60;67.20
14122;DHT22;7139;48.114;11.442;2023-08-21T12:41:16;34.60;67.70
14122;DHT22;7139;48.114;11.442;2023-08-21T12:43:43;34.60;66.10
14122;DHT22;7139;48.114;11.442;2023-08-21T12:46:09;34.60;66.40
14122;DHT22;7139;48.114;11.442;2023-08-21T12:48:36;34.60;65.10
14122;DHT22;7139;48.114;11.442;2023-08-21T12:51:03;34.60;63.40
14122;DHT22;7139;48.114;11.442;2023-08-21T12:53:30;34.60;61.60
14122;DHT22;7139;48.114;11.442;2023-08-21T12:55:57;34.60;62.20
14122;DHT22;7139;48.114;11.442;2023-08-21T12:58:25;34.60;63.60
14122;DHT22;7139;48.114;11.442;2023-08-21T13:00:52;34.60;65.70
14122;DHT22;7139;48.114;11.442;2023-08-21T13:03:19;34.60;64.40
14122;DHT22;7139;48.114;11.442;2023-08-21T13:05:46;34.50;64.60
14122;DHT22;7139;48.114;11.442;2023-08-21T13:08:13;34.50;65.70
14122;DHT22;7139;48.114;11.442;2023-08-21T13:10:40;34.50;64.00
14122;DHT22;7139;48.114;11.442;2023-08-21T13:13:07;34.60;64.30
14122;DHT22;7139;48.114;11.442;2023-08-21T13:15:35;34.70;63.20
14122;DHT22;7139;48.114;11.442;2023-08-21T13:18:02;34.90;64.90
14122;DHT22;7139;48.114;11.442;2023-08-21T13:20:29;34.90;64.40
14122;DHT22;7139;48.114;11.442;2023-08-21T13:22:55;35.00;63.40
14122;DHT22;7139;48.114;11.442;2023-08-21T13:25:23;34.80;61.50
14122;DHT22;7139;48.114;11.442;2023-08-21T13:27:51;34.90;63.70
14122;DHT22;7139;48.114;11.442;2023-08-21T13:30:18;35.00;64.70
14122;DHT22;7139;48.114;11.442;2023-08-21T13:32:47;34.80;64.80
14122;DHT22;7139;48.114;11.442;2023-08-21T13:35:13;34.80;65.10
14122;DHT22;7139;48.114;11.442;2023-08-21T13:37:40;34.90;65.70
14122;DHT22;7139;48.114;11.442;2023-08-21T13:40:07;34.90;65.50
14122;DHT22;7139;48.114;11.442;2023-08-21T13:42:37;34.80;64.80
14122;DHT22;7139;48.114;11.442;2023-08-21T13:45:07;34.90;65.80
14122;DHT22;7139;48.114;11.442;2023-08-21T13:47:35;34.80;63.40
14122;DHT22;7139;48.114;11.442;2023-08-21T13:50:04;34.70;63.90
14122;DHT22;7139;48.114;11.442;2023-08-21T13:52:31;34.60;63.40
14122;DHT22;7139;48.114;11.442;2023-08-21T13:54:59;34.50;62.70
14122;DHT22;7139;48.114;11.442;2023-08-21T13:57:26;34.50;63.50
14122;DHT22;7139;48.114;11.442;2023-08-21T13:59:53;34.60;64.50
14122;DHT22;7139;48.114;11.442;2023-08-21T14:02:20;34.60;63.80
14122;DHT22;7139;48.114;11.442;2023-08-21T14:04:48;34.50;64.00
14122;DHT22;7139;48.114;11.442;2023-08-21T14:07:16;34.50;62.50
14122;DHT22;7139;48.114;11.442;2023-08-21T14:09:43;34.50;64.80
14122;DHT22;7139;48.114;11.442;2023-08-21T14:12:10;34.50;64.70
14122;DHT22;7139;48.114;11.442;2023-08-21T14:14:37;34.40;64.20
14122;DHT22;7139;48.114;11.442;2023-08-21T14:17:04;34.40;63.30
14122;DHT22;7139;48.114;11.442;2023-08-21T14:19:30;34.30;64.50
14122;DHT22;7139;48.114;11.442;2023-08-21T14:21:57;34.40;62.90
14122;DHT22;7139;48.114;11.442;2023-08-21T14:24:26;34.40;63.70
14122;DHT22;7139;48.114;11.442;2023-08-21T14:26:53;34.30;62.70
14122;DHT22;7139;48.114;11.442;2023-08-21T14:29:20;34.40;63.10
14122;DHT22;7139;48.114;11.442;2023-08-21T14:31:47;34.40;62.60
14122;DHT22;7139;48.114;11.442;2023-08-21T14:34:14;34.40;63.70
14122;DHT22;7139;48.114;11.442;2023-08-21T14:36:41;34.50;63.40
14122;DHT22;7139;48.114;11.442;2023-08-21T14:39:07;34.40;64.20
14122;DHT22;7139;48.114;11.442;2023-08-21T14:41:37;34.40;65.00
14122;DHT22;7139;48.114;11.442;2023-08-21T14:44:04;34.40;63.40
14122;DHT22;7139;48.114;11.442;2023-08-21T14:46:31;34.50;64.30
14122;DHT22;7139;48.114;11.442;2023-08-21T14:48:58;34.30;63.90
14122;DHT22;7139;48.114;11.442;2023-08-21T14:51:25;34.30;62.50
14122;DHT22;7139;48.114;11.442;2023-08-21T14:53:52;34.20;62.20
14122;DHT22;7139;48.114;11.442;2023-08-21T14:56:19;34.20;62.90
14122;DHT22;7139;48.114;11.442;2023-08-21T14:58:48;34.20;62.50
14122;DHT22;7139;48.114;11.442;2023-08-21T15:01:15;34.20;62.20
14122;DHT22;7139;48.114;11.442;2023-08-21T15:03:42;34.20;62.30
14122;DHT22;7139;48.114;11.442;2023-08-21T15:06:09;34.20;61.20
14122;DHT22;7139;48.114;11.442;2023-08-21T15:08:37;34.20;61.90
14122;DHT22;7139;48.114;11.442;2023-08-21T15:11:04;34.20;62.00
14122;DHT22;7139;48.114;11.442;2023-08-21T15:13:31;34.20;62.80
14122;DHT22;7139;48.114;11.442;2023-08-21T15:15:59;34.30;62.70
14122;DHT22;7139;48.114;11.442;2023-08-21T15:18:26;34.20;61.40
14122;DHT22;7139;48.114;11.442;2023-08-21T15:20:53;34.20;59.90
14122;DHT22;7139;48.114;11.442;2023-08-21T15:23:19;34.10;62.60
14122;DHT22;7139;48.114;11.442;2023-08-21T15:25:46;34.00;61.70
14122;DHT22;7139;48.114;11.442;2023-08-21T15:28:14;34.00;62.30
14122;DHT22;7139;48.114;11.442;2023-08-21T15:30:40;34.10;63.50
14122;DHT22;7139;48.114;11.442;2023-08-21T15:33:09;34.10;64.30